createdAt,value
2023-01-19T00:00:24.501Z,20.90
2023-01-19T00:02:51.213Z,20.70
2023-01-19T00:05:17.928Z,24.20
2023-01-19T00:07:45.648Z,20.50
2023-01-19T00:10:12.287Z,25.10
2023-01-19T00:12:39.094Z,25.90
2023-01-19T00:15:06.591Z,21.60
2023-01-19T00:17:33.485Z,21.00
2023-01-19T00:20:00.705Z,21.00
2023-01-19T00:22:27.593Z,24.50
2023-01-19T00:24:54.377Z,21.70
2023-01-19T00:27:21.357Z,24.50
2023-01-19T00:29:48.021Z,19.50
2023-01-19T00:32:17.174Z,20.20
2023-01-19T00:34:48.790Z,20.50
2023-01-19T00:37:16.696Z,26.30
2023-01-19T00:39:44.552Z,21.20
2023-01-19T00:42:30.752Z,21.60
2023-01-19T00:44:57.529Z,20.30
2023-01-19T00:47:24.483Z,19.40
2023-01-19T00:49:51.381Z,17.30
2023-01-19T00:52:18.548Z,18.40
2023-01-19T00:54:45.658Z,17.80
2023-01-19T00:57:12.748Z,18.40
2023-01-19T00:59:39.531Z,20.10
2023-01-19T01:02:06.295Z,20.40
2023-01-19T01:04:33.314Z,23.50
2023-01-19T01:07:00.027Z,17.60
2023-01-19T01:09:29.388Z,19.00
2023-01-19T01:11:56.177Z,22.40
2023-01-19T01:14:23.659Z,22.70
2023-01-19T01:16:50.744Z,22.40
2023-01-19T01:19:17.475Z,19.40
2023-01-19T01:21:44.928Z,23.00
2023-01-19T01:24:11.771Z,23.00
2023-01-19T01:26:38.944Z,24.60
2023-01-19T01:29:05.898Z,17.70
2023-01-19T01:31:32.786Z,23.50
2023-01-19T01:33:59.567Z,16.40
2023-01-19T01:36:31.080Z,21.60
2023-01-19T01:38:58.380Z,19.70
2023-01-19T01:43:54.200Z,20.90
2023-01-19T01:46:20.996Z,18.80
2023-01-19T01:48:52.154Z,16.90
2023-01-19T01:51:26.137Z,19.20
2023-01-19T01:54:20.806Z,19.80
2023-01-19T01:56:49.127Z,18.50
2023-01-19T01:59:29.869Z,16.50
2023-01-19T02:02:17.013Z,18.50
2023-01-19T02:04:50.491Z,20.60
2023-01-19T02:08:04.112Z,22.10
2023-01-19T02:10:50.357Z,20.80
2023-01-19T02:13:23.279Z,23.10
2023-01-19T02:15:55.009Z,17.80
2023-01-19T02:18:22.717Z,16.10
2023-01-19T02:21:08.584Z,18.50
2023-01-19T02:23:39.400Z,16.90
2023-01-19T02:26:07.324Z,15.70
2023-01-19T02:28:34.117Z,16.80
2023-01-19T02:31:00.988Z,16.60
2023-01-19T02:33:27.872Z,15.40
2023-01-19T02:35:54.654Z,17.20
2023-01-19T02:38:21.505Z,20.30
2023-01-19T02:40:48.369Z,19.90
2023-01-19T02:43:15.171Z,18.30
2023-01-19T02:45:43.318Z,14.70
2023-01-19T02:48:10.222Z,16.70
2023-01-19T02:50:38.407Z,16.40
2023-01-19T02:53:34.245Z,16.60
2023-01-19T02:56:24.923Z,17.90
2023-01-19T02:59:15.831Z,12.90
2023-01-19T03:02:01.940Z,13.10
2023-01-19T03:04:45.789Z,15.40
2023-01-19T03:07:28.220Z,13.40
2023-01-19T03:10:28.133Z,18.20
2023-01-19T03:13:16.947Z,19.30
2023-01-19T03:15:48.222Z,15.70
2023-01-19T03:18:16.199Z,17.10
2023-01-19T03:20:44.143Z,12.50
2023-01-19T03:23:11.841Z,21.00
2023-01-19T03:25:41.305Z,14.90
2023-01-19T03:28:08.159Z,16.40
2023-01-19T03:30:40.384Z,14.40
2023-01-19T03:33:16.575Z,20.50
2023-01-19T03:35:49.652Z,18.20
2023-01-19T03:38:17.416Z,18.20
2023-01-19T03:40:44.374Z,21.70
2023-01-19T03:43:11.166Z,17.00
2023-01-19T03:45:38.430Z,19.60
2023-01-19T03:48:05.857Z,15.40
2023-01-19T03:50:32.713Z,11.50
2023-01-19T03:53:08.738Z,19.50
2023-01-19T03:55:35.838Z,17.70
2023-01-19T03:58:02.696Z,21.20
2023-01-19T04:00:29.552Z,18.50
2023-01-19T04:02:56.445Z,16.90
2023-01-19T04:05:23.684Z,16.10
2023-01-19T04:07:51.795Z,19.90
2023-01-19T04:10:18.926Z,14.90
2023-01-19T04:12:45.884Z,15.70
2023-01-19T04:15:13.044Z,18.30
2023-01-19T04:17:40.056Z,16.80
2023-01-19T04:20:07.312Z,16.70
2023-01-19T04:22:35.418Z,17.70
2023-01-19T04:25:03.207Z,17.60
2023-01-19T04:27:30.021Z,14.80
2023-01-19T04:29:57.159Z,18.40
2023-01-19T04:32:24.037Z,22.30
2023-01-19T04:34:50.902Z,15.70
2023-01-19T04:37:17.900Z,11.00
2023-01-19T04:39:44.727Z,16.00
2023-01-19T04:42:11.629Z,14.10
2023-01-19T04:44:38.669Z,18.80
2023-01-19T04:47:05.586Z,16.90
2023-01-19T04:49:32.524Z,17.00
2023-01-19T04:51:59.606Z,16.00
2023-01-19T04:54:27.152Z,15.80
2023-01-19T04:56:54.050Z,17.90
2023-01-19T04:59:21.637Z,15.30
2023-01-19T05:01:48.476Z,17.60
2023-01-19T05:04:15.809Z,12.20
2023-01-19T05:06:42.592Z,18.00
2023-01-19T05:09:11.850Z,17.40
2023-01-19T05:11:38.933Z,20.90
2023-01-19T05:14:05.967Z,19.30
2023-01-19T05:16:33.809Z,16.90
2023-01-19T05:19:00.694Z,14.20
2023-01-19T05:21:28.339Z,16.60
2023-01-19T05:23:55.161Z,15.70
2023-01-19T05:26:22.097Z,19.80
2023-01-19T05:28:50.439Z,14.10
2023-01-19T05:31:18.763Z,16.10
2023-01-19T05:33:46.448Z,13.10
2023-01-19T05:36:13.472Z,19.50
2023-01-19T05:38:40.425Z,12.00
2023-01-19T05:41:07.271Z,13.80
2023-01-19T05:43:34.206Z,17.20
2023-01-19T05:46:01.115Z,21.20
2023-01-19T05:48:28.116Z,23.00
2023-01-19T05:50:58.186Z,20.50
2023-01-19T05:53:25.459Z,19.60
2023-01-19T05:55:52.502Z,16.10
2023-01-19T05:58:19.377Z,21.50
2023-01-19T06:00:46.116Z,23.20
2023-01-19T06:03:13.445Z,22.20
2023-01-19T06:05:40.592Z,20.30
2023-01-19T06:08:07.414Z,22.80
2023-01-19T06:10:34.702Z,19.00
2023-01-19T06:13:01.891Z,21.10
2023-01-19T06:15:29.898Z,19.40
2023-01-19T06:17:56.735Z,21.60
2023-01-19T06:20:23.598Z,23.20
2023-01-19T06:22:50.435Z,22.90
2023-01-19T06:25:17.389Z,16.50
2023-01-19T06:27:45.260Z,16.60
2023-01-19T06:30:13.771Z,16.80
2023-01-19T06:32:40.596Z,17.40
2023-01-19T06:35:08.154Z,18.80
2023-01-19T06:37:35.272Z,23.40
2023-01-19T06:40:02.723Z,23.40
2023-01-19T06:42:29.835Z,22.30
2023-01-19T06:44:56.733Z,21.40
2023-01-19T06:47:23.678Z,26.40
2023-01-19T06:49:50.602Z,27.40
2023-01-19T06:52:18.592Z,29.60
2023-01-19T06:54:46.252Z,21.90
2023-01-19T06:57:14.558Z,21.50
2023-01-19T06:59:41.449Z,25.30
2023-01-19T07:02:26.141Z,23.20
2023-01-19T07:04:56.338Z,18.30
2023-01-19T07:07:23.388Z,20.00
2023-01-19T07:09:53.794Z,19.30
2023-01-19T07:12:22.151Z,19.70
2023-01-19T07:14:49.755Z,22.10
2023-01-19T07:17:19.544Z,23.30
2023-01-19T07:19:46.983Z,30.30
2023-01-19T07:22:13.916Z,34.90
2023-01-19T07:24:41.523Z,45.60
2023-01-19T07:27:08.688Z,27.70
2023-01-19T07:29:35.471Z,26.90
2023-01-19T07:32:02.301Z,32.30
2023-01-19T07:34:29.549Z,32.70
2023-01-19T07:36:56.579Z,26.80
2023-01-19T07:39:23.472Z,23.80
2023-01-19T07:41:50.689Z,32.20
2023-01-19T07:44:18.154Z,26.50
2023-01-19T07:46:44.987Z,20.70
2023-01-19T07:49:12.742Z,21.50
2023-01-19T07:51:39.630Z,23.10
2023-01-19T07:54:08.787Z,19.80
2023-01-19T07:56:35.962Z,18.60
2023-01-19T07:59:02.746Z,17.20
2023-01-19T08:01:29.962Z,15.70
2023-01-19T08:04:45.656Z,20.10
2023-01-19T08:07:12.535Z,25.60
2023-01-19T08:09:39.467Z,22.90
2023-01-19T08:12:06.343Z,26.00
2023-01-19T08:14:34.433Z,31.30
2023-01-19T08:17:01.897Z,31.30
2023-01-19T08:19:28.788Z,23.70
2023-01-19T08:21:56.546Z,23.10
2023-01-19T08:24:25.566Z,25.70
2023-01-19T08:26:55.992Z,24.00
2023-01-19T08:29:22.766Z,20.30
2023-01-19T08:31:49.777Z,14.50
2023-01-19T08:34:16.738Z,10.20
2023-01-19T08:36:43.556Z,11.30
2023-01-19T08:39:12.362Z,8.40
2023-01-19T08:41:39.306Z,8.20
2023-01-19T08:44:06.242Z,8.40
2023-01-19T08:46:33.135Z,8.10
2023-01-19T08:49:00.031Z,9.00
2023-01-19T08:51:26.995Z,9.10
2023-01-19T08:53:53.839Z,8.80
2023-01-19T08:56:20.910Z,14.20
2023-01-19T08:58:59.447Z,18.20
2023-01-19T09:01:34.519Z,12.80
2023-01-19T09:04:01.473Z,9.60
2023-01-19T09:06:28.491Z,13.00
2023-01-19T09:08:55.264Z,8.00
2023-01-19T09:11:22.116Z,11.80
2023-01-19T09:13:49.178Z,11.90
2023-01-19T09:16:16.264Z,14.30
2023-01-19T09:18:43.138Z,12.10
2023-01-19T09:21:09.985Z,11.30
2023-01-19T09:23:36.821Z,13.80
2023-01-19T09:26:04.494Z,12.50
2023-01-19T09:28:31.335Z,15.70
2023-01-19T09:30:58.583Z,16.10
2023-01-19T09:33:25.527Z,11.70
2023-01-19T09:35:52.415Z,11.50
2023-01-19T09:38:20.131Z,11.50
2023-01-19T09:40:52.604Z,15.20
2023-01-19T09:43:31.539Z,13.90
2023-01-19T09:45:59.114Z,13.20
2023-01-19T09:48:30.854Z,15.80
2023-01-19T09:51:02.163Z,13.90
2023-01-19T09:53:45.617Z,13.40
2023-01-19T09:56:14.572Z,12.40
2023-01-19T09:58:41.835Z,14.00
2023-01-19T10:01:22.899Z,15.10
2023-01-19T10:03:50.610Z,17.30
2023-01-19T10:06:17.458Z,17.00
2023-01-19T10:08:52.761Z,15.30
2023-01-19T10:11:52.561Z,17.10
2023-01-19T10:14:34.441Z,15.50
2023-01-19T10:17:36.076Z,17.40
2023-01-19T10:20:03.936Z,16.10
2023-01-19T10:22:30.781Z,19.50
2023-01-19T10:25:02.203Z,17.90
2023-01-19T10:27:30.767Z,17.60
2023-01-19T10:29:58.241Z,19.70
2023-01-19T10:32:46.825Z,17.30
2023-01-19T10:35:23.430Z,18.80
2023-01-19T10:37:56.500Z,15.40
2023-01-19T10:40:27.906Z,17.60
2023-01-19T10:42:54.802Z,17.60
2023-01-19T10:45:24.249Z,15.50
2023-01-19T10:47:53.279Z,23.10
2023-01-19T10:50:37.841Z,16.80
2023-01-19T10:53:06.270Z,16.00
2023-01-19T10:55:38.281Z,18.00
2023-01-19T10:58:06.566Z,16.60
2023-01-19T11:00:39.169Z,20.40
2023-01-19T11:03:40.412Z,17.90
2023-01-19T11:06:15.866Z,15.80
2023-01-19T11:08:44.536Z,20.90
2023-01-19T11:11:12.610Z,16.60
2023-01-19T11:13:40.174Z,17.20
2023-01-19T11:16:23.133Z,18.20
2023-01-19T11:18:51.952Z,20.60
2023-01-19T11:21:18.759Z,21.10
2023-01-19T11:23:47.394Z,17.80
2023-01-19T11:26:24.997Z,14.60
2023-01-19T11:28:54.727Z,20.90
2023-01-19T11:31:27.830Z,22.10
2023-01-19T11:33:56.983Z,21.40
2023-01-19T11:36:36.985Z,19.10
2023-01-19T11:39:24.434Z,25.20
2023-01-19T11:41:53.635Z,22.70
2023-01-19T11:44:33.688Z,22.50
2023-01-19T11:47:02.553Z,22.30
2023-01-19T11:49:40.587Z,25.70
2023-01-19T11:52:21.359Z,23.00
2023-01-19T11:54:53.310Z,26.10
2023-01-19T11:57:20.905Z,24.30
2023-01-19T11:59:47.797Z,28.10
2023-01-19T12:02:31.269Z,25.70
2023-01-19T12:05:00.402Z,25.10
2023-01-19T12:07:30.430Z,26.70
2023-01-19T12:10:06.159Z,23.90
2023-01-19T12:12:35.306Z,21.40
2023-01-19T12:15:08.342Z,28.60
2023-01-19T12:17:37.032Z,30.40
2023-01-19T12:20:07.343Z,34.20
2023-01-19T12:22:39.092Z,29.30
2023-01-19T12:25:22.898Z,35.50
2023-01-19T12:27:49.749Z,27.80
2023-01-19T12:30:21.465Z,27.70
2023-01-19T12:32:48.398Z,26.10
2023-01-19T12:35:53.105Z,33.10
2023-01-19T12:38:40.803Z,29.60
2023-01-19T12:41:26.571Z,33.00
2023-01-19T12:44:12.096Z,32.60
2023-01-19T12:46:43.031Z,35.30
2023-01-19T12:49:38.136Z,27.30
2023-01-19T12:52:20.555Z,36.00
2023-01-19T12:54:55.049Z,36.00
2023-01-19T12:57:48.109Z,31.20
2023-01-19T13:00:24.135Z,35.70
2023-01-19T13:03:17.392Z,38.70
2023-01-19T13:05:44.183Z,32.80
2023-01-19T13:08:13.915Z,25.80
2023-01-19T13:10:59.207Z,32.80
2023-01-19T13:13:38.731Z,38.50
2023-01-19T13:16:21.277Z,30.30
2023-01-19T13:18:53.383Z,31.40
2023-01-19T13:21:39.701Z,28.30
2023-01-19T13:24:15.038Z,27.10
2023-01-19T13:27:00.342Z,29.00
2023-01-19T13:29:38.085Z,27.90
2023-01-19T13:32:07.070Z,30.00
2023-01-19T13:34:47.037Z,25.40
2023-01-19T13:37:26.125Z,33.60
2023-01-19T13:39:53.912Z,33.10
2023-01-19T13:42:32.974Z,31.70
2023-01-19T13:45:37.017Z,32.20
2023-01-19T13:48:08.852Z,32.70
2023-01-19T13:50:40.083Z,28.00
2023-01-19T13:53:20.729Z,25.30
2023-01-19T13:55:50.422Z,34.80
2023-01-19T13:58:23.576Z,27.80
2023-01-19T14:01:58.147Z,32.20
2023-01-19T14:04:25.983Z,28.10
2023-01-19T14:06:55.780Z,25.90
2023-01-19T14:09:23.111Z,28.70
2023-01-19T14:12:14.083Z,27.50
2023-01-19T14:14:42.385Z,29.50
2023-01-19T14:17:27.050Z,35.60
2023-01-19T14:19:57.671Z,34.50
2023-01-19T14:22:57.188Z,27.80
2023-01-19T14:25:28.231Z,32.60
2023-01-19T14:28:29.906Z,35.30
2023-01-19T14:31:01.265Z,31.10
2023-01-19T14:33:46.114Z,32.90
2023-01-19T14:36:28.361Z,42.60
2023-01-19T14:38:57.221Z,39.70
2023-01-19T14:41:49.234Z,33.00
2023-01-19T14:44:22.824Z,36.70
2023-01-19T14:46:49.615Z,37.40
2023-01-19T14:49:30.767Z,28.10
2023-01-19T14:51:57.695Z,37.20
2023-01-19T14:54:38.901Z,31.40
2023-01-19T14:57:10.001Z,32.70
2023-01-19T14:59:36.797Z,31.40
2023-01-19T15:02:03.887Z,32.60
2023-01-19T15:04:30.753Z,33.10
2023-01-19T15:06:57.551Z,36.80
2023-01-19T15:09:24.408Z,33.30
2023-01-19T15:11:51.474Z,40.20
2023-01-19T15:14:19.064Z,37.20
2023-01-19T15:16:45.918Z,43.00
2023-01-19T15:19:13.658Z,40.20
2023-01-19T15:21:45.260Z,39.50
2023-01-19T15:24:13.011Z,41.60
2023-01-19T15:26:41.395Z,34.00
2023-01-19T15:29:16.100Z,38.20
2023-01-19T15:31:49.658Z,33.90
2023-01-19T15:34:20.250Z,42.70
2023-01-19T15:36:47.061Z,41.10
2023-01-19T15:39:13.809Z,35.00
2023-01-19T15:41:40.715Z,34.60
2023-01-19T15:44:10.285Z,30.50
2023-01-19T15:46:37.430Z,35.50
2023-01-19T15:49:05.875Z,33.80
2023-01-19T15:51:33.216Z,31.20
2023-01-19T15:54:00.018Z,33.70
2023-01-19T15:56:29.785Z,31.00
2023-01-19T15:58:58.151Z,30.10
2023-01-19T16:01:34.018Z,32.90
2023-01-19T16:04:05.446Z,30.40
2023-01-19T16:06:33.479Z,36.70
2023-01-19T16:09:01.636Z,26.50
2023-01-19T16:11:29.927Z,32.00
2023-01-19T16:13:56.719Z,36.60
2023-01-19T16:16:24.522Z,32.80
2023-01-19T16:18:51.515Z,38.50
2023-01-19T16:21:18.387Z,33.60
2023-01-19T16:23:45.141Z,36.00
2023-01-19T16:26:26.776Z,28.30
2023-01-19T16:28:56.786Z,35.50
2023-01-19T16:31:25.158Z,26.70
2023-01-19T16:33:51.927Z,33.30
2023-01-19T16:36:25.770Z,30.80
2023-01-19T16:38:52.803Z,24.50
2023-01-19T16:41:19.675Z,31.70
2023-01-19T16:43:51.936Z,26.90
2023-01-19T16:46:26.816Z,29.70
2023-01-19T16:48:53.943Z,32.90
2023-01-19T16:51:20.973Z,28.40
2023-01-19T16:53:49.797Z,33.70
2023-01-19T16:56:16.801Z,34.80
2023-01-19T16:58:43.877Z,30.20
2023-01-19T17:01:18.249Z,30.70
2023-01-19T17:03:47.231Z,33.80
2023-01-19T17:06:15.684Z,34.00
2023-01-19T17:08:42.648Z,25.50
2023-01-19T17:11:11.437Z,35.20
2023-01-19T17:13:38.701Z,37.30
2023-01-19T17:16:05.999Z,27.40
2023-01-19T17:18:34.189Z,32.40
2023-01-19T17:21:05.832Z,34.40
2023-01-19T17:23:32.741Z,30.50
2023-01-19T17:25:59.637Z,30.20
2023-01-19T17:28:26.459Z,36.00
2023-01-19T17:30:53.649Z,31.80
2023-01-19T17:33:24.897Z,28.80
2023-01-19T17:35:51.958Z,30.70
2023-01-19T17:38:18.792Z,27.60
2023-01-19T17:40:45.760Z,29.30
2023-01-19T17:43:12.555Z,26.70
2023-01-19T17:45:39.421Z,28.50
2023-01-19T17:48:07.181Z,30.60
2023-01-19T17:50:34.796Z,29.00
2023-01-19T17:53:01.904Z,25.40
2023-01-19T17:55:29.044Z,31.90
2023-01-19T17:57:55.884Z,29.60
2023-01-19T18:00:23.002Z,26.50
2023-01-19T18:02:51.597Z,29.40
2023-01-19T18:05:18.899Z,24.30
2023-01-19T18:07:46.514Z,30.20
2023-01-19T18:10:13.832Z,32.60
2023-01-19T18:12:41.063Z,32.60
2023-01-19T18:15:09.565Z,28.80
2023-01-19T18:17:36.575Z,28.10
2023-01-19T18:20:04.756Z,27.70
2023-01-19T18:22:32.464Z,33.10
2023-01-19T18:24:59.654Z,33.70
2023-01-19T18:27:26.659Z,29.00
2023-01-19T18:29:54.265Z,25.90
2023-01-19T18:32:21.745Z,23.10
2023-01-19T18:34:48.866Z,24.70
2023-01-19T18:37:15.889Z,23.80
2023-01-19T18:39:42.789Z,28.90
2023-01-19T18:42:09.828Z,23.00
2023-01-19T18:44:36.687Z,26.70
2023-01-19T18:47:03.609Z,24.80
2023-01-19T18:49:30.419Z,23.20
2023-01-19T18:51:58.006Z,30.70
2023-01-19T18:54:25.351Z,23.60
2023-01-19T18:56:52.702Z,25.20
2023-01-19T18:59:19.666Z,23.50
2023-01-19T19:01:46.696Z,19.40
2023-01-19T19:04:13.722Z,20.20
2023-01-19T19:06:40.620Z,22.20
2023-01-19T19:09:07.562Z,25.30
2023-01-19T19:11:34.498Z,17.80
2023-01-19T19:14:01.872Z,19.00
2023-01-19T19:16:29.758Z,25.50
2023-01-19T19:18:56.978Z,28.70
2023-01-19T19:21:27.722Z,22.60
2023-01-19T19:23:55.984Z,28.20
2023-01-19T19:26:23.341Z,25.00
2023-01-19T19:28:50.273Z,26.60
2023-01-19T19:31:20.758Z,23.50
2023-01-19T19:33:48.829Z,21.50
2023-01-19T19:36:16.168Z,24.10
2023-01-19T19:38:44.555Z,29.80
2023-01-19T19:41:12.943Z,28.00
2023-01-19T19:43:40.536Z,28.30
2023-01-19T19:46:09.020Z,25.70
2023-01-19T19:48:38.897Z,27.60
2023-01-19T19:51:18.042Z,24.50
2023-01-19T19:53:46.465Z,23.20
2023-01-19T19:56:13.634Z,24.50
2023-01-19T19:58:41.860Z,28.60
2023-01-19T20:01:09.705Z,21.60
2023-01-19T20:03:36.892Z,22.10
2023-01-19T20:06:05.461Z,19.60
2023-01-19T20:08:32.606Z,22.40
2023-01-19T20:11:09.908Z,32.30
2023-01-19T20:13:37.562Z,31.30
2023-01-19T20:16:06.291Z,30.80
2023-01-19T20:18:34.120Z,20.50
2023-01-19T20:21:01.002Z,24.90
2023-01-19T20:23:28.099Z,27.20
2023-01-19T20:25:54.885Z,26.00
2023-01-19T20:28:21.686Z,22.30
2023-01-19T20:30:48.714Z,26.80
2023-01-19T20:33:15.986Z,27.90
2023-01-19T20:35:43.036Z,29.60
2023-01-19T20:38:10.048Z,25.50
2023-01-19T20:40:37.031Z,28.00
2023-01-19T20:43:03.869Z,24.20
2023-01-19T20:45:30.952Z,24.20
2023-01-19T20:47:57.965Z,29.70
2023-01-19T20:50:24.807Z,20.70
2023-01-19T20:52:51.854Z,19.30
2023-01-19T20:55:19.208Z,27.70
2023-01-19T20:57:46.257Z,29.70
2023-01-19T21:00:13.921Z,26.00
2023-01-19T21:02:40.784Z,28.90
2023-01-19T21:05:08.602Z,23.30
2023-01-19T21:07:35.774Z,27.70
2023-01-19T21:10:02.721Z,22.30
2023-01-19T21:12:29.560Z,28.50
2023-01-19T21:14:56.504Z,23.90
2023-01-19T21:17:23.352Z,26.00
2023-01-19T21:19:50.392Z,24.70
2023-01-19T21:22:17.359Z,25.40
2023-01-19T21:24:44.641Z,20.60
2023-01-19T21:27:11.674Z,23.90
2023-01-19T21:29:38.582Z,21.80
2023-01-19T21:32:06.004Z,24.40
2023-01-19T21:34:33.014Z,30.80
2023-01-19T21:36:59.935Z,29.10
2023-01-19T21:39:26.757Z,29.30
2023-01-19T21:41:53.845Z,17.00
2023-01-19T21:44:20.662Z,23.50
2023-01-19T21:46:47.409Z,25.60
2023-01-19T21:49:18.508Z,19.60
2023-01-19T21:51:47.770Z,26.00
2023-01-19T21:54:15.012Z,27.40
2023-01-19T21:56:43.491Z,25.30
2023-01-19T21:59:12.409Z,25.50
2023-01-19T22:01:39.184Z,20.40
2023-01-19T22:04:06.265Z,24.00
2023-01-19T22:06:33.313Z,27.80
2023-01-19T22:09:00.877Z,22.80
2023-01-19T22:11:28.028Z,26.50
2023-01-19T22:13:55.144Z,25.80
2023-01-19T22:16:22.733Z,21.30
2023-01-19T22:18:51.625Z,26.20
2023-01-19T22:21:20.185Z,24.80
2023-01-19T22:23:51.239Z,29.40
2023-01-19T22:26:18.396Z,20.00
2023-01-19T22:28:45.461Z,23.10
2023-01-19T22:31:16.938Z,25.00
2023-01-19T22:33:43.966Z,25.10
2023-01-19T22:36:14.216Z,23.30
2023-01-19T22:38:41.135Z,23.70
2023-01-19T22:41:37.873Z,23.80
2023-01-19T22:44:07.456Z,26.50
2023-01-19T22:46:35.304Z,28.80
2023-01-19T22:49:02.175Z,24.80
2023-01-19T22:51:29.617Z,28.00
2023-01-19T22:53:56.522Z,26.30
2023-01-19T22:56:29.784Z,28.20
2023-01-19T23:01:25.644Z,27.70
2023-01-19T23:03:53.724Z,24.60
2023-01-19T23:06:25.238Z,25.20
2023-01-19T23:08:52.169Z,33.80
2023-01-19T23:11:20.853Z,31.20
2023-01-19T23:13:48.524Z,27.30
2023-01-19T23:16:15.353Z,28.90
2023-01-19T23:18:42.318Z,29.60
2023-01-19T23:21:17.280Z,22.60
2023-01-19T23:23:44.379Z,24.00
2023-01-19T23:26:13.293Z,26.00
2023-01-19T23:28:40.461Z,33.10
2023-01-19T23:31:23.785Z,25.10
2023-01-19T23:33:53.291Z,27.80
2023-01-19T23:36:20.448Z,32.10
2023-01-19T23:38:51.871Z,30.90
2023-01-19T23:41:19.198Z,23.00
2023-01-19T23:43:45.971Z,24.20
2023-01-19T23:46:13.245Z,33.10
2023-01-19T23:48:40.168Z,30.90
2023-01-19T23:51:08.226Z,27.30
2023-01-19T23:53:35.643Z,27.00
2023-01-19T23:56:12.429Z,26.90
2023-01-19T23:58:39.403Z,22.40
